Terminal Aerodrome Forecast
Issued by NWS

Home | Current Version | Previous Version | Text Only | Print | Product List | Glossary On
Versions: 1 2 3 4 5 6 7 8 9 10 11 12 13
000
FTUS43 KDTX 261120
TAFMBS
TAF
KMBS 261120Z 2612/2712 34006KT P6SM SKC
     FM261600 01009KT P6SM BKN045
     FM270000 02007KT P6SM OVC040
     FM271000 32005KT P6SM OVC025=

USA.gov is the U.S. government's official web portal to all federal, state and local government web resources and services.